Nearby METAR Reports

 

EDNY - Friedrichshafen, Germany
Distance from station: ONO 32km
aktuell: 19.10.2018 18:50
Mist, teilweise bewölkt
Mist, teilweise bewölkt
 Wind von N
Wind: N 9 km/h
Temperatur: 12°C
Taupunkt: 10°C
Luftfeuchte: 88%
Luftdruck: 1022 hPa
Zusammenfassung: Mist
Clouds: teilweise bewölkt
Visibility: 5 km
2018/10/19 16:50 EDNY 191650Z 35005KT 5000 BR NSC 12/10 Q1022
LSZR - Rheineck/Altenrh, Switzerland
Distance from station: OSO 37km
aktuell: 19.10.2018 18:50
Mist, teilweise bewölkt
Mist, teilweise bewölkt
 Wind von varies
Wind: varies 4 km/h
Temperatur: 12°C
Taupunkt: 10°C
Luftfeuchte: 88%
Luftdruck: 1022 hPa
Zusammenfassung: Mist
Clouds: teilweise bewölkt
Visibility: 5 km
2018/10/19 16:50 LSZR 191650Z VRB02KT 4500 BR NSC 12/10 Q1022 NOSIG RMK O
LSMD - Dubendorf, Switzerland
Distance from station: SW 40km
aktuell: 19.10.2018 18:20
klar
klar
 Wind von varies
Wind: varies 2 km/h
Temperatur: 14°C
Taupunkt: 10°C
Luftfeuchte: 77%
Luftdruck: 1022 hPa
Clouds: klar
Visibility: 10 miles
2018/10/19 16:20 LSMD 191620Z AUTO VRB01KT 6000NDV NCD 14/10 Q1022 RMK
 
LSZH - Zurich-Kloten (a, Switzerland
Distance from station: WSW 44km
aktuell: 19.10.2018 18:50
Mist, teilweise bewölkt
Mist, teilweise bewölkt
 Wind von varies
Wind: varies 2 km/h
Temperatur: 11°C
Taupunkt: 9°C
Luftfeuchte: 88%
Luftdruck: 1022 hPa
Zusammenfassung: Mist
Clouds: teilweise bewölkt
Visibility: 4 km
2018/10/19 16:50 LSZH 191650Z VRB01KT 4000 BR NSC 11/09 Q1022 NOSIG
LOIH - Hohenems-Dornbir, Austria
Distance from station: OSO 51km
aktuell: 31.10.2016 17:00
NOT Current
geschlossene Wolkendecke
geschlossene Wolkendecke
 Wind von calm
Wind: Windstill
Temperatur: 10°C
Taupunkt: 9°C
Luftfeuchte: 94%
Luftdruck: 1026 hPa
Clouds: geschlossene Wolkendecke
Cloud details: geschlossene Wolkendecke 305 m
2016/10/31 16:00 LOIH 311600Z 00000KT 10KM OVC010ST 10/09 Q1026 RMK OVC
LSME - Emmen, Switzerland
Distance from station: SW 82km
aktuell: 19.10.2018 18:20
sehr leichter Niederschlag, Showers, Mist, klar
sehr leichter Niederschlag, Showers, Mist, klar
 Wind von varies
Wind: varies 2 km/h
Temperatur: 12°C
Taupunkt: 9°C
Luftfeuchte: 82%
Luftdruck: 1022 hPa
Zusammenfassung: sehr leichter Niederschlag, Showers, Mist
Clouds: klar
Visibility: 6 miles
2018/10/19 16:20 LSME 191620Z AUTO VRB01KT 3500NDV -SHRA BR NCD 12/09 Q1022 RMK
 
LSZC - Buochs, Switzerland
Distance from station: SW 89km
aktuell: 19.10.2018 18:50
Mist, geschlossene Wolkendecke
Mist, geschlossene Wolkendecke
 Wind von varies
Wind: varies 2 km/h
Temperatur: 13°C
Taupunkt: 11°C
Luftfeuchte: 88%
Luftdruck: 1022 hPa
Zusammenfassung: Mist
Clouds: geschlossene Wolkendecke
Visibility: 5 km
Cloud details: geschlossene Wolkendecke 396 m
2018/10/19 16:50 LSZC 191650Z AUTO VRB01KT 4600 BR OVC013 13/11 Q1022
ETHL - Laupheim (ger-Ar, Germany
Distance from station: NO 92km
aktuell: 19.10.2018 18:20
Mist, stark bewölkt
Mist, stark bewölkt
 Wind von NO
Wind: NO 4 km/h
Temperatur: 12°C
Taupunkt: 10°C
Luftfeuchte: 88%
Luftdruck: 1022 hPa
Zusammenfassung: Mist
Clouds: stark bewölkt
Visibility: 3 km
Cloud details: Few Clouds 427 m
stark bewölkt 7620 m
2018/10/19 16:20 ETHL 191620Z 05002KT 3200 BR FEW014 BKN250 12/10 Q1022 YLO
EDJA - Memmingen Allgau, Germany
Distance from station: ONO 95km
aktuell: 19.10.2018 18:50
Mist, teilweise bewölkt
Mist, teilweise bewölkt
 Wind von O
Wind: O 6 km/h
Temperatur: 10°C
Taupunkt: 9°C
Luftfeuchte: 94%
Luftdruck: 1022 hPa
Zusammenfassung: Mist
Clouds: teilweise bewölkt
Visibility: 3 km
2018/10/19 16:50 EDJA 191650Z 08003KT 3300 BR NSC 10/09 Q1022
 
LSMA - Alpnach, Switzerland
Distance from station: SW 95km
aktuell: 19.10.2018 18:20
Mist, geschlossene Wolkendecke
Mist, geschlossene Wolkendecke
 Wind von varies
Wind: varies 4 km/h
Temperatur: 13°C
Taupunkt: 10°C
Luftfeuchte: 82%
Luftdruck: 1022 hPa
Zusammenfassung: Mist
Clouds: geschlossene Wolkendecke
Visibility: 7 miles
Cloud details: geschlossene Wolkendecke 488 m
2018/10/19 16:20 LSMA 191620Z AUTO VRB02KT 4500NDV BR OVC016 13/10 Q1022 RMK